sensor_id;sensor_type;location;lat;lon;timestamp;temperature;humidity
30304;DHT22;17112;48.636;10.152;2023-03-21T00:02:01;11.90;62.90
30304;DHT22;17112;48.636;10.152;2023-03-21T00:04:27;11.90;62.90
30304;DHT22;17112;48.636;10.152;2023-03-21T00:06:53;11.90;62.90
30304;DHT22;17112;48.636;10.152;2023-03-21T00:09:20;11.90;63.00
30304;DHT22;17112;48.636;10.152;2023-03-21T00:11:46;11.90;63.00
30304;DHT22;17112;48.636;10.152;2023-03-21T00:14:12;11.90;63.10
30304;DHT22;17112;48.636;10.152;2023-03-21T00:16:45;11.90;63.10
30304;DHT22;17112;48.636;10.152;2023-03-21T00:19:16;11.90;63.10
30304;DHT22;17112;48.636;10.152;2023-03-21T00:21:42;11.90;63.10
30304;DHT22;17112;48.636;10.152;2023-03-21T00:24:08;11.80;62.90
30304;DHT22;17112;48.636;10.152;2023-03-21T00:26:34;11.80;62.90
30304;DHT22;17112;48.636;10.152;2023-03-21T00:29:00;11.80;62.90
30304;DHT22;17112;48.636;10.152;2023-03-21T00:31:26;11.80;63.00
30304;DHT22;17112;48.636;10.152;2023-03-21T00:33:51;11.80;63.20
30304;DHT22;17112;48.636;10.152;2023-03-21T00:36:17;11.80;63.20
30304;DHT22;17112;48.636;10.152;2023-03-21T00:38:43;11.80;63.20
30304;DHT22;17112;48.636;10.152;2023-03-21T00:41:10;11.80;63.40
30304;DHT22;17112;48.636;10.152;2023-03-21T00:43:38;11.80;63.40
30304;DHT22;17112;48.636;10.152;2023-03-21T00:46:04;11.80;63.30
30304;DHT22;17112;48.636;10.152;2023-03-21T00:48:30;11.80;63.40
30304;DHT22;17112;48.636;10.152;2023-03-21T00:50:57;11.80;63.40
30304;DHT22;17112;48.636;10.152;2023-03-21T00:53:25;11.80;63.40
30304;DHT22;17112;48.636;10.152;2023-03-21T00:55:51;11.70;63.40
30304;DHT22;17112;48.636;10.152;2023-03-21T00:58:17;11.70;63.50
30304;DHT22;17112;48.636;10.152;2023-03-21T01:00:43;11.70;63.60
30304;DHT22;17112;48.636;10.152;2023-03-21T01:03:11;11.70;63.70
30304;DHT22;17112;48.636;10.152;2023-03-21T01:05:39;11.70;63.80
30304;DHT22;17112;48.636;10.152;2023-03-21T01:08:24;11.70;63.80
30304;DHT22;17112;48.636;10.152;2023-03-21T01:10:51;11.70;63.70
30304;DHT22;17112;48.636;10.152;2023-03-21T01:13:18;11.70;63.80
30304;DHT22;17112;48.636;10.152;2023-03-21T01:15:49;11.60;63.80
30304;DHT22;17112;48.636;10.152;2023-03-21T01:18:17;11.60;63.80
30304;DHT22;17112;48.636;10.152;2023-03-21T01:20:43;11.60;63.90
30304;DHT22;17112;48.636;10.152;2023-03-21T01:23:11;11.60;63.90
30304;DHT22;17112;48.636;10.152;2023-03-21T01:25:37;11.60;64.00
30304;DHT22;17112;48.636;10.152;2023-03-21T01:28:03;11.50;64.00
30304;DHT22;17112;48.636;10.152;2023-03-21T01:30:28;11.50;64.00
30304;DHT22;17112;48.636;10.152;2023-03-21T01:32:54;11.50;64.00
30304;DHT22;17112;48.636;10.152;2023-03-21T01:35:20;11.50;63.90
30304;DHT22;17112;48.636;10.152;2023-03-21T01:37:46;11.40;63.70
30304;DHT22;17112;48.636;10.152;2023-03-21T01:40:19;11.40;63.70
30304;DHT22;17112;48.636;10.152;2023-03-21T01:42:46;11.40;63.70
30304;DHT22;17112;48.636;10.152;2023-03-21T01:48:16;11.40;63.60
30304;DHT22;17112;48.636;10.152;2023-03-21T01:50:42;11.30;63.00
30304;DHT22;17112;48.636;10.152;2023-03-21T01:53:09;11.30;63.10
30304;DHT22;17112;48.636;10.152;2023-03-21T01:55:36;11.30;63.10
30304;DHT22;17112;48.636;10.152;2023-03-21T01:58:04;11.20;63.40
30304;DHT22;17112;48.636;10.152;2023-03-21T02:00:30;11.20;63.80
30304;DHT22;17112;48.636;10.152;2023-03-21T02:02:58;11.20;64.10
30304;DHT22;17112;48.636;10.152;2023-03-21T02:05:32;11.20;64.30
30304;DHT22;17112;48.636;10.152;2023-03-21T02:08:02;11.20;64.50
30304;DHT22;17112;48.636;10.152;2023-03-21T02:10:28;11.20;64.30
30304;DHT22;17112;48.636;10.152;2023-03-21T02:13:02;11.20;64.60
30304;DHT22;17112;48.636;10.152;2023-03-21T02:15:37;11.20;64.90
30304;DHT22;17112;48.636;10.152;2023-03-21T02:18:14;11.20;64.90
30304;DHT22;17112;48.636;10.152;2023-03-21T02:20:53;11.20;64.90
30304;DHT22;17112;48.636;10.152;2023-03-21T02:29:00;11.20;65.60
30304;DHT22;17112;48.636;10.152;2023-03-21T02:33:59;11.20;65.10
30304;DHT22;17112;48.636;10.152;2023-03-21T02:36:50;11.10;65.00
30304;DHT22;17112;48.636;10.152;2023-03-21T02:39:40;11.10;65.40
30304;DHT22;17112;48.636;10.152;2023-03-21T02:42:20;11.20;65.50
30304;DHT22;17112;48.636;10.152;2023-03-21T02:47:43;11.10;65.30
30304;DHT22;17112;48.636;10.152;2023-03-21T02:52:38;11.10;64.90
30304;DHT22;17112;48.636;10.152;2023-03-21T02:55:19;11.10;65.10
30304;DHT22;17112;48.636;10.152;2023-03-21T02:57:48;11.10;65.20
30304;DHT22;17112;48.636;10.152;2023-03-21T03:00:18;11.10;65.20
30304;DHT22;17112;48.636;10.152;2023-03-21T03:02:45;11.10;65.30
30304;DHT22;17112;48.636;10.152;2023-03-21T03:05:21;11.10;65.20
30304;DHT22;17112;48.636;10.152;2023-03-21T03:07:58;11.10;65.60
30304;DHT22;17112;48.636;10.152;2023-03-21T03:11:01;11.10;65.70
30304;DHT22;17112;48.636;10.152;2023-03-21T03:19:25;11.10;66.10
30304;DHT22;17112;48.636;10.152;2023-03-21T03:22:02;11.00;65.70
30304;DHT22;17112;48.636;10.152;2023-03-21T03:24:35;11.00;65.80
30304;DHT22;17112;48.636;10.152;2023-03-21T03:27:27;11.00;65.60
30304;DHT22;17112;48.636;10.152;2023-03-21T03:29:59;11.10;65.80
30304;DHT22;17112;48.636;10.152;2023-03-21T03:32:49;11.00;65.40
30304;DHT22;17112;48.636;10.152;2023-03-21T03:35:19;11.00;66.20
30304;DHT22;17112;48.636;10.152;2023-03-21T03:37:49;11.00;65.50
30304;DHT22;17112;48.636;10.152;2023-03-21T03:40:24;11.00;65.50
30304;DHT22;17112;48.636;10.152;2023-03-21T03:42:54;11.00;65.70
30304;DHT22;17112;48.636;10.152;2023-03-21T03:45:33;11.00;65.60
30304;DHT22;17112;48.636;10.152;2023-03-21T03:50:46;11.00;66.00
30304;DHT22;17112;48.636;10.152;2023-03-21T03:55:55;11.00;66.90
30304;DHT22;17112;48.636;10.152;2023-03-21T03:58:23;10.90;65.60
30304;DHT22;17112;48.636;10.152;2023-03-21T04:00:49;10.90;65.70
30304;DHT22;17112;48.636;10.152;2023-03-21T04:03:15;11.00;65.80
30304;DHT22;17112;48.636;10.152;2023-03-21T04:05:42;11.00;65.80
30304;DHT22;17112;48.636;10.152;2023-03-21T04:08:11;10.90;65.80
30304;DHT22;17112;48.636;10.152;2023-03-21T04:10:38;10.90;65.80
30304;DHT22;17112;48.636;10.152;2023-03-21T04:13:04;10.90;65.80
30304;DHT22;17112;48.636;10.152;2023-03-21T04:15:29;10.90;65.90
30304;DHT22;17112;48.636;10.152;2023-03-21T04:17:55;10.90;66.00
30304;DHT22;17112;48.636;10.152;2023-03-21T04:20:21;10.90;66.00
30304;DHT22;17112;48.636;10.152;2023-03-21T04:22:47;10.90;66.10
30304;DHT22;17112;48.636;10.152;2023-03-21T04:25:13;10.90;66.10
30304;DHT22;17112;48.636;10.152;2023-03-21T04:27:38;10.90;66.10
30304;DHT22;17112;48.636;10.152;2023-03-21T04:30:05;10.90;66.10
30304;DHT22;17112;48.636;10.152;2023-03-21T04:32:32;10.90;66.10
30304;DHT22;17112;48.636;10.152;2023-03-21T04:34:59;10.80;66.00
30304;DHT22;17112;48.636;10.152;2023-03-21T04:37:25;10.90;66.10
30304;DHT22;17112;48.636;10.152;2023-03-21T04:39:52;10.80;66.10
30304;DHT22;17112;48.636;10.152;2023-03-21T04:42:18;10.80;66.20
30304;DHT22;17112;48.636;10.152;2023-03-21T04:44:48;10.80;66.30
30304;DHT22;17112;48.636;10.152;2023-03-21T04:47:14;10.80;66.50
30304;DHT22;17112;48.636;10.152;2023-03-21T04:49:45;10.80;66.30
30304;DHT22;17112;48.636;10.152;2023-03-21T04:52:14;10.80;66.40
30304;DHT22;17112;48.636;10.152;2023-03-21T04:54:40;10.80;66.30
30304;DHT22;17112;48.636;10.152;2023-03-21T04:57:05;10.80;66.40
30304;DHT22;17112;48.636;10.152;2023-03-21T04:59:32;10.80;66.50
30304;DHT22;17112;48.636;10.152;2023-03-21T05:01:58;10.80;66.50
30304;DHT22;17112;48.636;10.152;2023-03-21T05:04:25;10.80;66.50
30304;DHT22;17112;48.636;10.152;2023-03-21T05:06:51;10.80;66.60
30304;DHT22;17112;48.636;10.152;2023-03-21T05:09:17;10.80;66.50
30304;DHT22;17112;48.636;10.152;2023-03-21T05:11:43;10.80;66.50
30304;DHT22;17112;48.636;10.152;2023-03-21T05:14:11;10.80;66.60
30304;DHT22;17112;48.636;10.152;2023-03-21T05:16:39;10.80;66.60
30304;DHT22;17112;48.636;10.152;2023-03-21T05:19:10;10.80;66.70
30304;DHT22;17112;48.636;10.152;2023-03-21T05:21:38;10.80;66.70
30304;DHT22;17112;48.636;10.152;2023-03-21T05:24:08;10.70;66.60
30304;DHT22;17112;48.636;10.152;2023-03-21T05:26:37;10.80;66.70
30304;DHT22;17112;48.636;10.152;2023-03-21T05:29:04;10.80;66.70
30304;DHT22;17112;48.636;10.152;2023-03-21T05:31:29;10.80;66.70
30304;DHT22;17112;48.636;10.152;2023-03-21T05:33:55;10.70;66.80
30304;DHT22;17112;48.636;10.152;2023-03-21T05:36:21;10.70;66.90
30304;DHT22;17112;48.636;10.152;2023-03-21T05:38:50;10.70;66.90
30304;DHT22;17112;48.636;10.152;2023-03-21T05:41:17;11.00;67.10
30304;DHT22;17112;48.636;10.152;2023-03-21T05:43:43;10.70;66.90
30304;DHT22;17112;48.636;10.152;2023-03-21T05:46:10;10.70;66.90
30304;DHT22;17112;48.636;10.152;2023-03-21T05:48:36;10.80;67.10
30304;DHT22;17112;48.636;10.152;2023-03-21T05:51:02;10.80;67.00
30304;DHT22;17112;48.636;10.152;2023-03-21T05:53:28;10.70;67.00
30304;DHT22;17112;48.636;10.152;2023-03-21T05:55:55;10.70;67.00
30304;DHT22;17112;48.636;10.152;2023-03-21T05:58:20;10.70;66.90
30304;DHT22;17112;48.636;10.152;2023-03-21T06:00:46;10.70;66.90
30304;DHT22;17112;48.636;10.152;2023-03-21T06:03:11;10.80;67.10
30304;DHT22;17112;48.636;10.152;2023-03-21T06:05:37;10.80;67.10
30304;DHT22;17112;48.636;10.152;2023-03-21T06:08:03;10.80;67.10
30304;DHT22;17112;48.636;10.152;2023-03-21T06:10:28;10.80;67.10
30304;DHT22;17112;48.636;10.152;2023-03-21T06:12:54;10.80;67.30
30304;DHT22;17112;48.636;10.152;2023-03-21T06:15:20;10.80;67.30
30304;DHT22;17112;48.636;10.152;2023-03-21T06:17:45;10.80;67.20
30304;DHT22;17112;48.636;10.152;2023-03-21T06:20:12;10.90;67.20
30304;DHT22;17112;48.636;10.152;2023-03-21T06:22:38;10.90;67.30
30304;DHT22;17112;48.636;10.152;2023-03-21T06:25:05;10.90;67.30
30304;DHT22;17112;48.636;10.152;2023-03-21T06:27:32;10.90;67.40
30304;DHT22;17112;48.636;10.152;2023-03-21T06:29:58;10.90;67.30
30304;DHT22;17112;48.636;10.152;2023-03-21T06:32:24;10.90;67.20
30304;DHT22;17112;48.636;10.152;2023-03-21T06:34:50;11.00;67.20
30304;DHT22;17112;48.636;10.152;2023-03-21T06:37:16;11.00;67.20
30304;DHT22;17112;48.636;10.152;2023-03-21T06:39:43;11.00;67.30
30304;DHT22;17112;48.636;10.152;2023-03-21T06:42:09;11.10;67.30
30304;DHT22;17112;48.636;10.152;2023-03-21T06:44:35;11.10;67.20
30304;DHT22;17112;48.636;10.152;2023-03-21T06:47:01;11.10;67.20
30304;DHT22;17112;48.636;10.152;2023-03-21T06:49:27;11.20;67.30
30304;DHT22;17112;48.636;10.152;2023-03-21T06:51:52;11.20;67.20
30304;DHT22;17112;48.636;10.152;2023-03-21T06:54:18;11.20;67.10
30304;DHT22;17112;48.636;10.152;2023-03-21T06:56:45;11.30;67.10
30304;DHT22;17112;48.636;10.152;2023-03-21T06:59:11;11.30;67.00
30304;DHT22;17112;48.636;10.152;2023-03-21T07:01:37;11.30;67.70
30304;DHT22;17112;48.636;10.152;2023-03-21T07:04:03;11.40;67.00
30304;DHT22;17112;48.636;10.152;2023-03-21T07:06:29;11.40;66.80
30304;DHT22;17112;48.636;10.152;2023-03-21T07:08:55;11.50;66.80
30304;DHT22;17112;48.636;10.152;2023-03-21T07:11:22;11.50;66.70
30304;DHT22;17112;48.636;10.152;2023-03-21T07:13:47;11.60;66.80
30304;DHT22;17112;48.636;10.152;2023-03-21T07:16:14;11.60;66.60
30304;DHT22;17112;48.636;10.152;2023-03-21T07:18:41;11.70;66.60
30304;DHT22;17112;48.636;10.152;2023-03-21T07:21:06;11.80;66.40
30304;DHT22;17112;48.636;10.152;2023-03-21T07:23:32;11.80;66.20
30304;DHT22;17112;48.636;10.152;2023-03-21T07:25:59;11.90;66.00
30304;DHT22;17112;48.636;10.152;2023-03-21T07:28:26;12.00;65.90
30304;DHT22;17112;48.636;10.152;2023-03-21T07:30:54;12.00;65.70
30304;DHT22;17112;48.636;10.152;2023-03-21T07:33:20;12.10;65.60
30304;DHT22;17112;48.636;10.152;2023-03-21T07:35:49;12.20;65.60
30304;DHT22;17112;48.636;10.152;2023-03-21T07:38:14;12.30;65.50
30304;DHT22;17112;48.636;10.152;2023-03-21T07:40:41;12.30;65.20
30304;DHT22;17112;48.636;10.152;2023-03-21T07:43:07;12.40;65.10
30304;DHT22;17112;48.636;10.152;2023-03-21T07:45:33;12.40;65.00
30304;DHT22;17112;48.636;10.152;2023-03-21T07:48:00;12.50;64.90
30304;DHT22;17112;48.636;10.152;2023-03-21T07:50:25;12.60;64.90
30304;DHT22;17112;48.636;10.152;2023-03-21T07:52:51;12.70;64.80
30304;DHT22;17112;48.636;10.152;2023-03-21T07:55:17;12.70;64.70
30304;DHT22;17112;48.636;10.152;2023-03-21T07:57:43;12.80;64.60
30304;DHT22;17112;48.636;10.152;2023-03-21T08:00:09;12.90;64.50
30304;DHT22;17112;48.636;10.152;2023-03-21T08:02:36;12.90;64.30
30304;DHT22;17112;48.636;10.152;2023-03-21T08:05:02;13.00;64.00
30304;DHT22;17112;48.636;10.152;2023-03-21T08:07:28;13.10;64.00
30304;DHT22;17112;48.636;10.152;2023-03-21T08:09:55;13.20;64.00
30304;DHT22;17112;48.636;10.152;2023-03-21T08:12:20;13.30;63.90
30304;DHT22;17112;48.636;10.152;2023-03-21T08:14:46;13.40;63.70
30304;DHT22;17112;48.636;10.152;2023-03-21T08:17:12;13.50;63.50
30304;DHT22;17112;48.636;10.152;2023-03-21T08:19:38;13.50;63.50
30304;DHT22;17112;48.636;10.152;2023-03-21T08:22:04;13.60;63.40
30304;DHT22;17112;48.636;10.152;2023-03-21T08:24:31;13.70;63.40
30304;DHT22;17112;48.636;10.152;2023-03-21T08:26:59;13.80;63.40
30304;DHT22;17112;48.636;10.152;2023-03-21T08:29:25;13.90;63.10
30304;DHT22;17112;48.636;10.152;2023-03-21T08:31:51;14.00;63.00
30304;DHT22;17112;48.636;10.152;2023-03-21T08:34:18;14.00;62.60
30304;DHT22;17112;48.636;10.152;2023-03-21T08:36:44;14.10;62.40
30304;DHT22;17112;48.636;10.152;2023-03-21T08:39:11;14.20;62.30
30304;DHT22;17112;48.636;10.152;2023-03-21T08:41:37;14.30;62.30
30304;DHT22;17112;48.636;10.152;2023-03-21T08:44:04;14.40;62.20
30304;DHT22;17112;48.636;10.152;2023-03-21T08:46:31;14.50;61.80
30304;DHT22;17112;48.636;10.152;2023-03-21T08:48:56;14.50;61.80
30304;DHT22;17112;48.636;10.152;2023-03-21T08:51:22;14.60;61.70
30304;DHT22;17112;48.636;10.152;2023-03-21T08:53:48;14.70;61.20
30304;DHT22;17112;48.636;10.152;2023-03-21T08:56:17;14.70;60.80
30304;DHT22;17112;48.636;10.152;2023-03-21T08:58:43;14.80;60.50
30304;DHT22;17112;48.636;10.152;2023-03-21T09:01:09;14.90;60.20
30304;DHT22;17112;48.636;10.152;2023-03-21T09:03:38;14.90;59.90
30304;DHT22;17112;48.636;10.152;2023-03-21T09:06:04;15.00;59.80
30304;DHT22;17112;48.636;10.152;2023-03-21T09:08:30;15.00;59.70
30304;DHT22;17112;48.636;10.152;2023-03-21T09:10:56;15.10;59.40
30304;DHT22;17112;48.636;10.152;2023-03-21T09:13:22;15.20;59.10
30304;DHT22;17112;48.636;10.152;2023-03-21T09:15:48;15.30;58.80
30304;DHT22;17112;48.636;10.152;2023-03-21T09:18:15;15.40;58.70
30304;DHT22;17112;48.636;10.152;2023-03-21T09:20:43;15.50;58.70
30304;DHT22;17112;48.636;10.152;2023-03-21T09:23:09;15.50;58.60
30304;DHT22;17112;48.636;10.152;2023-03-21T09:25:36;15.60;58.40
30304;DHT22;17112;48.636;10.152;2023-03-21T09:28:03;15.60;57.90
30304;DHT22;17112;48.636;10.152;2023-03-21T09:30:31;15.70;57.40
30304;DHT22;17112;48.636;10.152;2023-03-21T09:32:59;15.80;57.10
30304;DHT22;17112;48.636;10.152;2023-03-21T09:35:25;15.80;56.70
30304;DHT22;17112;48.636;10.152;2023-03-21T09:37:52;15.90;56.70
30304;DHT22;17112;48.636;10.152;2023-03-21T09:45:57;16.00;55.50
30304;DHT22;17112;48.636;10.152;2023-03-21T09:48:55;16.00;55.80
30304;DHT22;17112;48.636;10.152;2023-03-21T09:51:21;16.10;55.70
30304;DHT22;17112;48.636;10.152;2023-03-21T09:53:49;16.20;55.80
30304;DHT22;17112;48.636;10.152;2023-03-21T09:56:16;16.20;55.60
30304;DHT22;17112;48.636;10.152;2023-03-21T09:58:47;16.30;55.60
30304;DHT22;17112;48.636;10.152;2023-03-21T10:01:28;16.30;55.10
30304;DHT22;17112;48.636;10.152;2023-03-21T10:04:00;16.30;54.50
30304;DHT22;17112;48.636;10.152;2023-03-21T10:06:27;16.40;55.00
30304;DHT22;17112;48.636;10.152;2023-03-21T10:09:16;16.40;54.90
30304;DHT22;17112;48.636;10.152;2023-03-21T10:11:53;16.50;54.60
30304;DHT22;17112;48.636;10.152;2023-03-21T10:14:34;16.60;54.80
30304;DHT22;17112;48.636;10.152;2023-03-21T10:20:14;16.70;54.10
30304;DHT22;17112;48.636;10.152;2023-03-21T10:22:42;16.80;54.20
30304;DHT22;17112;48.636;10.152;2023-03-21T10:25:14;16.90;54.50
30304;DHT22;17112;48.636;10.152;2023-03-21T10:27:40;17.00;54.50
30304;DHT22;17112;48.636;10.152;2023-03-21T10:30:08;17.20;54.40
30304;DHT22;17112;48.636;10.152;2023-03-21T10:32:37;17.30;54.40
30304;DHT22;17112;48.636;10.152;2023-03-21T10:35:03;17.50;54.00
30304;DHT22;17112;48.636;10.152;2023-03-21T10:37:29;17.60;54.00
30304;DHT22;17112;48.636;10.152;2023-03-21T10:39:56;17.70;53.60
30304;DHT22;17112;48.636;10.152;2023-03-21T10:42:28;17.80;53.30
30304;DHT22;17112;48.636;10.152;2023-03-21T10:44:56;17.90;53.20
30304;DHT22;17112;48.636;10.152;2023-03-21T10:47:26;18.00;53.00
30304;DHT22;17112;48.636;10.152;2023-03-21T10:49:52;18.10;53.30
30304;DHT22;17112;48.636;10.152;2023-03-21T10:52:21;18.20;53.40
30304;DHT22;17112;48.636;10.152;2023-03-21T10:54:48;18.30;52.50
30304;DHT22;17112;48.636;10.152;2023-03-21T10:57:24;18.40;52.80
30304;DHT22;17112;48.636;10.152;2023-03-21T10:59:58;18.50;52.30
30304;DHT22;17112;48.636;10.152;2023-03-21T11:02:33;18.60;51.80
30304;DHT22;17112;48.636;10.152;2023-03-21T11:05:05;18.70;51.10
30304;DHT22;17112;48.636;10.152;2023-03-21T11:07:32;18.80;51.40
30304;DHT22;17112;48.636;10.152;2023-03-21T11:09:59;18.80;51.40
30304;DHT22;17112;48.636;10.152;2023-03-21T11:12:34;18.90;51.30
30304;DHT22;17112;48.636;10.152;2023-03-21T11:15:28;19.00;50.40
30304;DHT22;17112;48.636;10.152;2023-03-21T11:17:55;19.00;49.70
30304;DHT22;17112;48.636;10.152;2023-03-21T11:20:21;19.20;51.20
30304;DHT22;17112;48.636;10.152;2023-03-21T11:22:48;19.20;50.70
30304;DHT22;17112;48.636;10.152;2023-03-21T11:25:35;19.30;50.70
30304;DHT22;17112;48.636;10.152;2023-03-21T11:28:08;19.30;49.80
30304;DHT22;17112;48.636;10.152;2023-03-21T11:30:36;19.40;50.20
30304;DHT22;17112;48.636;10.152;2023-03-21T11:33:03;19.40;50.40
30304;DHT22;17112;48.636;10.152;2023-03-21T11:35:34;19.40;50.60
30304;DHT22;17112;48.636;10.152;2023-03-21T11:38:01;19.50;50.20
30304;DHT22;17112;48.636;10.152;2023-03-21T11:40:28;19.60;49.50
30304;DHT22;17112;48.636;10.152;2023-03-21T11:47:53;19.60;49.50
30304;DHT22;17112;48.636;10.152;2023-03-21T11:58:17;19.70;49.80
30304;DHT22;17112;48.636;10.152;2023-03-21T12:03:43;19.80;49.30
30304;DHT22;17112;48.636;10.152;2023-03-21T12:09:13;20.00;49.10
30304;DHT22;17112;48.636;10.152;2023-03-21T12:17:44;20.30;47.60
30304;DHT22;17112;48.636;10.152;2023-03-21T12:20:36;20.40;48.60
30304;DHT22;17112;48.636;10.152;2023-03-21T12:28:36;20.50;48.00
30304;DHT22;17112;48.636;10.152;2023-03-21T12:39:27;20.70;47.60
30304;DHT22;17112;48.636;10.152;2023-03-21T12:42:12;20.80;47.20
30304;DHT22;17112;48.636;10.152;2023-03-21T12:44:46;20.80;47.50
30304;DHT22;17112;48.636;10.152;2023-03-21T12:47:19;20.80;47.00
30304;DHT22;17112;48.636;10.152;2023-03-21T12:49:48;20.80;46.80
30304;DHT22;17112;48.636;10.152;2023-03-21T12:52:23;20.90;46.90
30304;DHT22;17112;48.636;10.152;2023-03-21T12:55:05;20.90;46.70
30304;DHT22;17112;48.636;10.152;2023-03-21T12:57:35;20.90;46.70
30304;DHT22;17112;48.636;10.152;2023-03-21T13:00:24;21.00;46.40
30304;DHT22;17112;48.636;10.152;2023-03-21T13:03:35;21.00;45.00
30304;DHT22;17112;48.636;10.152;2023-03-21T13:06:04;21.00;43.20
30304;DHT22;17112;48.636;10.152;2023-03-21T13:11:11;20.90;44.80
30304;DHT22;17112;48.636;10.152;2023-03-21T13:17:09;20.80;44.40
30304;DHT22;17112;48.636;10.152;2023-03-21T13:20:00;20.70;44.80
30304;DHT22;17112;48.636;10.152;2023-03-21T13:22:31;20.70;44.70
30304;DHT22;17112;48.636;10.152;2023-03-21T13:27:36;20.70;45.30
30304;DHT22;17112;48.636;10.152;2023-03-21T13:30:24;20.60;45.70
30304;DHT22;17112;48.636;10.152;2023-03-21T13:33:13;20.60;44.90
30304;DHT22;17112;48.636;10.152;2023-03-21T13:35:41;20.60;44.60
30304;DHT22;17112;48.636;10.152;2023-03-21T13:38:24;20.60;45.60
30304;DHT22;17112;48.636;10.152;2023-03-21T13:40:56;20.60;44.90
30304;DHT22;17112;48.636;10.152;2023-03-21T13:43:43;20.60;45.10
30304;DHT22;17112;48.636;10.152;2023-03-21T13:46:14;20.50;44.90
30304;DHT22;17112;48.636;10.152;2023-03-21T13:56:27;20.50;45.40
30304;DHT22;17112;48.636;10.152;2023-03-21T13:59:00;20.50;45.30
30304;DHT22;17112;48.636;10.152;2023-03-21T14:01:39;20.40;44.90
30304;DHT22;17112;48.636;10.152;2023-03-21T14:04:19;20.40;44.80
30304;DHT22;17112;48.636;10.152;2023-03-21T14:11:52;20.20;44.40
30304;DHT22;17112;48.636;10.152;2023-03-21T14:14:21;20.10;44.80
30304;DHT22;17112;48.636;10.152;2023-03-21T14:16:48;20.00;44.90
30304;DHT22;17112;48.636;10.152;2023-03-21T14:19:16;20.00;45.20
30304;DHT22;17112;48.636;10.152;2023-03-21T14:21:49;19.90;45.30
30304;DHT22;17112;48.636;10.152;2023-03-21T14:24:18;19.80;45.00
30304;DHT22;17112;48.636;10.152;2023-03-21T14:26:49;19.70;45.20
30304;DHT22;17112;48.636;10.152;2023-03-21T14:29:34;19.70;45.40
30304;DHT22;17112;48.636;10.152;2023-03-21T14:32:00;19.60;44.90
30304;DHT22;17112;48.636;10.152;2023-03-21T14:34:30;19.60;46.00
30304;DHT22;17112;48.636;10.152;2023-03-21T14:36:56;19.50;45.90
30304;DHT22;17112;48.636;10.152;2023-03-21T14:39:27;19.50;45.90
30304;DHT22;17112;48.636;10.152;2023-03-21T14:41:55;19.50;45.80
30304;DHT22;17112;48.636;10.152;2023-03-21T14:44:25;19.40;45.70
30304;DHT22;17112;48.636;10.152;2023-03-21T14:49:52;19.40;45.90
30304;DHT22;17112;48.636;10.152;2023-03-21T14:52:29;19.30;46.10
30304;DHT22;17112;48.636;10.152;2023-03-21T14:54:56;19.30;45.90
30304;DHT22;17112;48.636;10.152;2023-03-21T14:57:26;19.20;46.00
30304;DHT22;17112;48.636;10.152;2023-03-21T14:59:55;19.20;46.00
30304;DHT22;17112;48.636;10.152;2023-03-21T15:02:29;19.10;46.20
30304;DHT22;17112;48.636;10.152;2023-03-21T15:04:57;19.00;46.10
30304;DHT22;17112;48.636;10.152;2023-03-21T15:07:28;19.00;46.30
30304;DHT22;17112;48.636;10.152;2023-03-21T15:09:56;19.00;46.40
30304;DHT22;17112;48.636;10.152;2023-03-21T15:12:22;19.00;46.70
30304;DHT22;17112;48.636;10.152;2023-03-21T15:14:48;18.90;46.80
30304;DHT22;17112;48.636;10.152;2023-03-21T15:17:14;18.90;47.00
30304;DHT22;17112;48.636;10.152;2023-03-21T15:19:40;18.90;47.00
30304;DHT22;17112;48.636;10.152;2023-03-21T15:22:33;18.90;47.20
30304;DHT22;17112;48.636;10.152;2023-03-21T15:25:03;18.90;46.90
30304;DHT22;17112;48.636;10.152;2023-03-21T15:27:33;18.90;47.10
30304;DHT22;17112;48.636;10.152;2023-03-21T15:29:59;18.80;47.10
30304;DHT22;17112;48.636;10.152;2023-03-21T15:32:26;18.80;46.90
30304;DHT22;17112;48.636;10.152;2023-03-21T15:34:54;18.80;47.20
30304;DHT22;17112;48.636;10.152;2023-03-21T15:37:34;18.70;48.20
30304;DHT22;17112;48.636;10.152;2023-03-21T15:40:24;18.80;47.70
30304;DHT22;17112;48.636;10.152;2023-03-21T15:42:50;18.80;48.00
30304;DHT22;17112;48.636;10.152;2023-03-21T15:45:27;18.80;47.90
30304;DHT22;17112;48.636;10.152;2023-03-21T15:48:08;18.80;47.90
30304;DHT22;17112;48.636;10.152;2023-03-21T15:50:38;18.70;47.90
30304;DHT22;17112;48.636;10.152;2023-03-21T15:53:10;18.80;48.20
30304;DHT22;17112;48.636;10.152;2023-03-21T15:55:59;18.70;48.20
30304;DHT22;17112;48.636;10.152;2023-03-21T15:58:33;18.70;48.40
30304;DHT22;17112;48.636;10.152;2023-03-21T16:01:05;18.70;48.20
30304;DHT22;17112;48.636;10.152;2023-03-21T16:03:36;18.70;48.20
30304;DHT22;17112;48.636;10.152;2023-03-21T16:13:52;18.60;48.70
30304;DHT22;17112;48.636;10.152;2023-03-21T16:16:29;18.60;48.70
30304;DHT22;17112;48.636;10.152;2023-03-21T16:18:56;18.60;48.60
30304;DHT22;17112;48.636;10.152;2023-03-21T16:21:24;18.60;48.80
30304;DHT22;17112;48.636;10.152;2023-03-21T16:23:51;18.60;49.00
30304;DHT22;17112;48.636;10.152;2023-03-21T16:26:21;18.50;48.90
30304;DHT22;17112;48.636;10.152;2023-03-21T16:28:47;18.50;49.00
30304;DHT22;17112;48.636;10.152;2023-03-21T16:31:16;18.50;49.00
30304;DHT22;17112;48.636;10.152;2023-03-21T16:33:43;18.40;49.00
30304;DHT22;17112;48.636;10.152;2023-03-21T16:38:46;18.30;49.00
30304;DHT22;17112;48.636;10.152;2023-03-21T16:41:14;18.30;49.10
30304;DHT22;17112;48.636;10.152;2023-03-21T16:43:41;18.30;49.20
30304;DHT22;17112;48.636;10.152;2023-03-21T16:46:15;18.30;49.30
30304;DHT22;17112;48.636;10.152;2023-03-21T16:48:42;18.30;49.50
30304;DHT22;17112;48.636;10.152;2023-03-21T16:51:23;18.30;49.30
30304;DHT22;17112;48.636;10.152;2023-03-21T16:53:52;18.20;49.40
30304;DHT22;17112;48.636;10.152;2023-03-21T16:56:23;18.20;49.50
30304;DHT22;17112;48.636;10.152;2023-03-21T16:58:52;18.10;49.60
30304;DHT22;17112;48.636;10.152;2023-03-21T17:01:20;18.10;49.70
30304;DHT22;17112;48.636;10.152;2023-03-21T17:03:50;18.10;49.60
30304;DHT22;17112;48.636;10.152;2023-03-21T17:06:21;18.10;49.60
30304;DHT22;17112;48.636;10.152;2023-03-21T17:08:47;18.00;49.60
30304;DHT22;17112;48.636;10.152;2023-03-21T17:11:18;18.00;49.60
30304;DHT22;17112;48.636;10.152;2023-03-21T17:13:45;17.90;49.50
30304;DHT22;17112;48.636;10.152;2023-03-21T17:16:13;17.90;49.50
30304;DHT22;17112;48.636;10.152;2023-03-21T17:18:39;17.90;49.50
30304;DHT22;17112;48.636;10.152;2023-03-21T17:21:16;17.80;49.70